Terminal Aerodrome Forecast
Issued by NWS Grand Rapids, MI

Home | Current Version | Previous Version | Text Only | Print | Product List | Glossary On
Versions: 1 2 3 4 5 6 7 8 9 10 11 12 13 14 15 16 17 18
000
FTUS43 KGRR 271728
TAFGRR
TAF
KGRR 271728Z 2718/2818 17011G15KT P6SM VCTS BKN050CB
      TEMPO 2718/2720 4SM TSRA BR OVC025CB
     FM272200 17009G16KT P6SM VCTS BKN035CB
     FM280600 16011KT P6SM VCSH BKN025
     FM281300 18011G18KT 4SM SHRA BR VCTS OVC015CB=

USA.gov is the U.S. government's official web portal to all federal, state and local government web resources and services.